sensor_id;sensor_type;location;lat;lon;timestamp;P1;durP1;ratioP1;P2;durP2;ratioP2
84877;SDS011;75140;47.754;8.840;2024-01-30T00:00:33;116.95;;;22.42;;
84877;SDS011;75140;47.754;8.840;2024-01-30T00:02:59;86.13;;;20.13;;
84877;SDS011;75140;47.754;8.840;2024-01-30T00:05:24;57.40;;;20.75;;
84877;SDS011;75140;47.754;8.840;2024-01-30T00:07:50;106.50;;;20.33;;
84877;SDS011;75140;47.754;8.840;2024-01-30T00:10:15;76.70;;;18.85;;
84877;SDS011;75140;47.754;8.840;2024-01-30T00:12:40;67.68;;;19.02;;
84877;SDS011;75140;47.754;8.840;2024-01-30T00:15:06;67.70;;;19.60;;
84877;SDS011;75140;47.754;8.840;2024-01-30T00:17:34;71.38;;;20.40;;
84877;SDS011;75140;47.754;8.840;2024-01-30T00:20:00;79.60;;;20.70;;
84877;SDS011;75140;47.754;8.840;2024-01-30T00:22:26;79.70;;;19.27;;
84877;SDS011;75140;47.754;8.840;2024-01-30T00:24:51;51.10;;;14.85;;
84877;SDS011;75140;47.754;8.840;2024-01-30T00:27:16;81.83;;;16.90;;
84877;SDS011;75140;47.754;8.840;2024-01-30T00:29:42;96.90;;;17.43;;
84877;SDS011;75140;47.754;8.840;2024-01-30T00:32:07;64.87;;;15.83;;
84877;SDS011;75140;47.754;8.840;2024-01-30T00:34:32;73.83;;;17.23;;
84877;SDS011;75140;47.754;8.840;2024-01-30T00:36:58;61.45;;;15.75;;
84877;SDS011;75140;47.754;8.840;2024-01-30T00:39:23;63.50;;;17.30;;
84877;SDS011;75140;47.754;8.840;2024-01-30T00:41:48;88.18;;;18.45;;
84877;SDS011;75140;47.754;8.840;2024-01-30T00:44:14;93.60;;;16.52;;
84877;SDS011;75140;47.754;8.840;2024-01-30T00:46:39;48.50;;;17.47;;
84877;SDS011;75140;47.754;8.840;2024-01-30T00:49:05;59.10;;;15.05;;
84877;SDS011;75140;47.754;8.840;2024-01-30T00:51:30;82.50;;;17.03;;
84877;SDS011;75140;47.754;8.840;2024-01-30T00:53:55;111.27;;;17.73;;
84877;SDS011;75140;47.754;8.840;2024-01-30T00:56:21;83.13;;;16.70;;
84877;SDS011;75140;47.754;8.840;2024-01-30T00:58:46;65.97;;;18.20;;
84877;SDS011;75140;47.754;8.840;2024-01-30T01:01:11;89.07;;;18.00;;
84877;SDS011;75140;47.754;8.840;2024-01-30T01:03:37;76.20;;;16.23;;
84877;SDS011;75140;47.754;8.840;2024-01-30T01:06:02;74.93;;;16.35;;
84877;SDS011;75140;47.754;8.840;2024-01-30T01:08:28;85.00;;;17.73;;
84877;SDS011;75140;47.754;8.840;2024-01-30T01:10:53;58.00;;;14.80;;
84877;SDS011;75140;47.754;8.840;2024-01-30T01:13:19;103.73;;;15.90;;
84877;SDS011;75140;47.754;8.840;2024-01-30T01:15:44;59.03;;;14.87;;
84877;SDS011;75140;47.754;8.840;2024-01-30T01:18:09;108.65;;;14.30;;
84877;SDS011;75140;47.754;8.840;2024-01-30T01:20:35;46.93;;;14.00;;
84877;SDS011;75140;47.754;8.840;2024-01-30T01:23:00;73.95;;;13.68;;
84877;SDS011;75140;47.754;8.840;2024-01-30T01:25:25;96.33;;;15.63;;
84877;SDS011;75140;47.754;8.840;2024-01-30T01:27:51;44.97;;;11.67;;
84877;SDS011;75140;47.754;8.840;2024-01-30T01:30:17;63.58;;;14.23;;
84877;SDS011;75140;47.754;8.840;2024-01-30T01:32:47;72.22;;;15.45;;
84877;SDS011;75140;47.754;8.840;2024-01-30T01:35:20;58.15;;;14.50;;
84877;SDS011;75140;47.754;8.840;2024-01-30T01:37:46;42.65;;;13.98;;
84877;SDS011;75140;47.754;8.840;2024-01-30T01:40:11;52.10;;;12.83;;
84877;SDS011;75140;47.754;8.840;2024-01-30T01:42:37;72.87;;;14.73;;
84877;SDS011;75140;47.754;8.840;2024-01-30T01:45:03;38.80;;;14.00;;
84877;SDS011;75140;47.754;8.840;2024-01-30T01:47:28;108.65;;;17.77;;
84877;SDS011;75140;47.754;8.840;2024-01-30T01:49:54;63.85;;;15.73;;
84877;SDS011;75140;47.754;8.840;2024-01-30T01:52:19;57.50;;;14.83;;
84877;SDS011;75140;47.754;8.840;2024-01-30T01:54:45;64.35;;;13.65;;
84877;SDS011;75140;47.754;8.840;2024-01-30T01:57:10;76.55;;;17.38;;
84877;SDS011;75140;47.754;8.840;2024-01-30T01:59:36;69.15;;;16.80;;
84877;SDS011;75140;47.754;8.840;2024-01-30T02:02:02;93.05;;;16.05;;
84877;SDS011;75140;47.754;8.840;2024-01-30T02:04:28;62.17;;;14.65;;
84877;SDS011;75140;47.754;8.840;2024-01-30T02:06:53;74.63;;;15.43;;
84877;SDS011;75140;47.754;8.840;2024-01-30T02:09:19;59.47;;;15.18;;
84877;SDS011;75140;47.754;8.840;2024-01-30T02:11:44;98.57;;;18.13;;
84877;SDS011;75140;47.754;8.840;2024-01-30T02:14:10;83.30;;;17.42;;
84877;SDS011;75140;47.754;8.840;2024-01-30T02:16:35;47.73;;;14.90;;
84877;SDS011;75140;47.754;8.840;2024-01-30T02:19:01;55.97;;;14.43;;
84877;SDS011;75140;47.754;8.840;2024-01-30T02:21:27;61.53;;;16.88;;
84877;SDS011;75140;47.754;8.840;2024-01-30T02:23:52;42.22;;;15.20;;
84877;SDS011;75140;47.754;8.840;2024-01-30T02:26:20;78.68;;;16.20;;
84877;SDS011;75140;47.754;8.840;2024-01-30T02:28:45;100.97;;;17.05;;
84877;SDS011;75140;47.754;8.840;2024-01-30T02:31:10;68.57;;;15.03;;
84877;SDS011;75140;47.754;8.840;2024-01-30T02:33:36;57.97;;;14.10;;
84877;SDS011;75140;47.754;8.840;2024-01-30T02:36:01;35.70;;;15.33;;
84877;SDS011;75140;47.754;8.840;2024-01-30T02:38:27;92.90;;;16.27;;
84877;SDS011;75140;47.754;8.840;2024-01-30T02:40:53;51.42;;;15.93;;
84877;SDS011;75140;47.754;8.840;2024-01-30T02:43:19;85.80;;;16.52;;
84877;SDS011;75140;47.754;8.840;2024-01-30T02:45:44;113.67;;;16.97;;
84877;SDS011;75140;47.754;8.840;2024-01-30T02:48:10;58.30;;;16.10;;
84877;SDS011;75140;47.754;8.840;2024-01-30T02:50:35;70.33;;;16.13;;
84877;SDS011;75140;47.754;8.840;2024-01-30T02:53:00;73.90;;;16.27;;
84877;SDS011;75140;47.754;8.840;2024-01-30T02:55:26;49.43;;;15.17;;
84877;SDS011;75140;47.754;8.840;2024-01-30T02:57:51;58.55;;;15.80;;
84877;SDS011;75140;47.754;8.840;2024-01-30T03:00:16;76.93;;;18.57;;
84877;SDS011;75140;47.754;8.840;2024-01-30T03:02:42;54.90;;;17.08;;
84877;SDS011;75140;47.754;8.840;2024-01-30T03:05:07;71.35;;;19.02;;
84877;SDS011;75140;47.754;8.840;2024-01-30T03:07:33;67.88;;;17.00;;
84877;SDS011;75140;47.754;8.840;2024-01-30T03:09:58;56.97;;;17.98;;
84877;SDS011;75140;47.754;8.840;2024-01-30T03:12:24;70.77;;;16.37;;
84877;SDS011;75140;47.754;8.840;2024-01-30T03:14:49;45.63;;;15.90;;
84877;SDS011;75140;47.754;8.840;2024-01-30T03:17:14;42.63;;;16.00;;
84877;SDS011;75140;47.754;8.840;2024-01-30T03:19:40;54.88;;;15.48;;
84877;SDS011;75140;47.754;8.840;2024-01-30T03:22:06;50.47;;;15.77;;
84877;SDS011;75140;47.754;8.840;2024-01-30T03:24:31;47.63;;;17.08;;
84877;SDS011;75140;47.754;8.840;2024-01-30T03:26:56;41.70;;;15.83;;
84877;SDS011;75140;47.754;8.840;2024-01-30T03:29:22;40.60;;;17.10;;
84877;SDS011;75140;47.754;8.840;2024-01-30T03:31:47;56.13;;;17.90;;
84877;SDS011;75140;47.754;8.840;2024-01-30T03:34:12;33.40;;;17.27;;
84877;SDS011;75140;47.754;8.840;2024-01-30T03:36:38;31.50;;;16.02;;
84877;SDS011;75140;47.754;8.840;2024-01-30T03:39:03;39.57;;;14.97;;
84877;SDS011;75140;47.754;8.840;2024-01-30T03:41:29;40.35;;;14.65;;
84877;SDS011;75140;47.754;8.840;2024-01-30T03:43:54;66.03;;;15.80;;
84877;SDS011;75140;47.754;8.840;2024-01-30T03:46:20;32.93;;;16.20;;
84877;SDS011;75140;47.754;8.840;2024-01-30T03:48:45;48.07;;;17.57;;
84877;SDS011;75140;47.754;8.840;2024-01-30T03:51:11;46.47;;;15.20;;
84877;SDS011;75140;47.754;8.840;2024-01-30T03:53:41;45.55;;;15.70;;
84877;SDS011;75140;47.754;8.840;2024-01-30T03:56:07;36.25;;;15.80;;
84877;SDS011;75140;47.754;8.840;2024-01-30T03:58:32;35.42;;;15.68;;
84877;SDS011;75140;47.754;8.840;2024-01-30T04:00:58;45.97;;;16.00;;
84877;SDS011;75140;47.754;8.840;2024-01-30T04:03:23;33.80;;;16.57;;
84877;SDS011;75140;47.754;8.840;2024-01-30T04:05:51;42.33;;;17.27;;
84877;SDS011;75140;47.754;8.840;2024-01-30T04:08:17;45.05;;;17.23;;
84877;SDS011;75140;47.754;8.840;2024-01-30T04:10:43;54.53;;;17.90;;
84877;SDS011;75140;47.754;8.840;2024-01-30T04:13:08;51.95;;;17.02;;
84877;SDS011;75140;47.754;8.840;2024-01-30T04:15:34;41.42;;;16.42;;
84877;SDS011;75140;47.754;8.840;2024-01-30T04:17:59;41.25;;;18.48;;
84877;SDS011;75140;47.754;8.840;2024-01-30T04:20:25;62.38;;;17.88;;
84877;SDS011;75140;47.754;8.840;2024-01-30T04:22:50;41.10;;;15.25;;
84877;SDS011;75140;47.754;8.840;2024-01-30T04:25:16;51.25;;;15.50;;
84877;SDS011;75140;47.754;8.840;2024-01-30T04:27:41;55.88;;;19.73;;
84877;SDS011;75140;47.754;8.840;2024-01-30T04:30:07;114.22;;;19.73;;
84877;SDS011;75140;47.754;8.840;2024-01-30T04:32:33;92.78;;;18.30;;
84877;SDS011;75140;47.754;8.840;2024-01-30T04:34:58;44.30;;;18.03;;
84877;SDS011;75140;47.754;8.840;2024-01-30T04:37:23;83.13;;;17.63;;
84877;SDS011;75140;47.754;8.840;2024-01-30T04:39:49;43.63;;;14.68;;
84877;SDS011;75140;47.754;8.840;2024-01-30T04:42:15;37.35;;;15.30;;
84877;SDS011;75140;47.754;8.840;2024-01-30T04:44:40;39.23;;;15.33;;
84877;SDS011;75140;47.754;8.840;2024-01-30T04:47:06;46.17;;;14.77;;
84877;SDS011;75140;47.754;8.840;2024-01-30T04:49:34;42.13;;;12.60;;
84877;SDS011;75140;47.754;8.840;2024-01-30T04:51:59;40.17;;;13.20;;
84877;SDS011;75140;47.754;8.840;2024-01-30T04:54:25;36.13;;;12.83;;
84877;SDS011;75140;47.754;8.840;2024-01-30T04:56:50;80.53;;;14.45;;
84877;SDS011;75140;47.754;8.840;2024-01-30T04:59:16;57.27;;;15.83;;
84877;SDS011;75140;47.754;8.840;2024-01-30T05:01:41;44.90;;;14.70;;
84877;SDS011;75140;47.754;8.840;2024-01-30T05:04:09;106.00;;;15.87;;
84877;SDS011;75140;47.754;8.840;2024-01-30T05:06:36;56.58;;;15.57;;
84877;SDS011;75140;47.754;8.840;2024-01-30T05:09:02;42.90;;;15.57;;
84877;SDS011;75140;47.754;8.840;2024-01-30T05:11:29;48.38;;;14.55;;
84877;SDS011;75140;47.754;8.840;2024-01-30T05:13:54;38.57;;;14.40;;
84877;SDS011;75140;47.754;8.840;2024-01-30T05:16:19;48.50;;;14.67;;
84877;SDS011;75140;47.754;8.840;2024-01-30T05:18:45;72.40;;;21.37;;
84877;SDS011;75140;47.754;8.840;2024-01-30T05:21:10;46.57;;;14.10;;
84877;SDS011;75140;47.754;8.840;2024-01-30T05:23:36;62.30;;;16.73;;
84877;SDS011;75140;47.754;8.840;2024-01-30T05:26:01;47.05;;;16.00;;
84877;SDS011;75140;47.754;8.840;2024-01-30T05:28:28;53.70;;;15.80;;
84877;SDS011;75140;47.754;8.840;2024-01-30T05:30:54;62.13;;;17.10;;
84877;SDS011;75140;47.754;8.840;2024-01-30T05:33:20;75.05;;;18.90;;
84877;SDS011;75140;47.754;8.840;2024-01-30T05:35:45;63.87;;;14.97;;
84877;SDS011;75140;47.754;8.840;2024-01-30T05:38:11;47.90;;;17.67;;
84877;SDS011;75140;47.754;8.840;2024-01-30T05:40:37;47.00;;;14.98;;
84877;SDS011;75140;47.754;8.840;2024-01-30T05:43:02;59.20;;;16.53;;
84877;SDS011;75140;47.754;8.840;2024-01-30T05:45:28;50.78;;;14.60;;
84877;SDS011;75140;47.754;8.840;2024-01-30T05:47:53;79.03;;;16.10;;
84877;SDS011;75140;47.754;8.840;2024-01-30T05:50:19;40.10;;;15.27;;
84877;SDS011;75140;47.754;8.840;2024-01-30T05:52:45;40.20;;;16.35;;
84877;SDS011;75140;47.754;8.840;2024-01-30T05:55:11;34.35;;;15.93;;
84877;SDS011;75140;47.754;8.840;2024-01-30T05:57:37;84.57;;;16.65;;
84877;SDS011;75140;47.754;8.840;2024-01-30T06:00:03;56.20;;;16.50;;
84877;SDS011;75140;47.754;8.840;2024-01-30T06:02:30;40.40;;;14.45;;
84877;SDS011;75140;47.754;8.840;2024-01-30T06:04:55;37.55;;;14.75;;
84877;SDS011;75140;47.754;8.840;2024-01-30T06:07:21;36.53;;;16.70;;
84877;SDS011;75140;47.754;8.840;2024-01-30T06:09:47;40.47;;;14.88;;
84877;SDS011;75140;47.754;8.840;2024-01-30T06:12:12;43.88;;;14.95;;
84877;SDS011;75140;47.754;8.840;2024-01-30T06:14:38;56.78;;;16.58;;
84877;SDS011;75140;47.754;8.840;2024-01-30T06:17:03;50.92;;;15.48;;
84877;SDS011;75140;47.754;8.840;2024-01-30T06:19:29;71.80;;;16.25;;
84877;SDS011;75140;47.754;8.840;2024-01-30T06:21:55;38.28;;;16.15;;
84877;SDS011;75140;47.754;8.840;2024-01-30T06:24:20;48.77;;;16.33;;
84877;SDS011;75140;47.754;8.840;2024-01-30T06:26:46;43.03;;;15.63;;
84877;SDS011;75140;47.754;8.840;2024-01-30T06:29:11;74.20;;;18.40;;
84877;SDS011;75140;47.754;8.840;2024-01-30T06:31:39;47.97;;;17.13;;
84877;SDS011;75140;47.754;8.840;2024-01-30T06:34:09;37.25;;;18.80;;
84877;SDS011;75140;47.754;8.840;2024-01-30T06:36:36;42.08;;;17.00;;
84877;SDS011;75140;47.754;8.840;2024-01-30T06:39:02;44.78;;;19.00;;
84877;SDS011;75140;47.754;8.840;2024-01-30T06:41:27;57.90;;;19.58;;
84877;SDS011;75140;47.754;8.840;2024-01-30T06:43:53;49.10;;;16.52;;
84877;SDS011;75140;47.754;8.840;2024-01-30T06:46:18;44.38;;;17.63;;
84877;SDS011;75140;47.754;8.840;2024-01-30T06:48:44;41.83;;;14.95;;
84877;SDS011;75140;47.754;8.840;2024-01-30T06:51:10;44.05;;;16.75;;
84877;SDS011;75140;47.754;8.840;2024-01-30T06:53:36;65.90;;;16.75;;
84877;SDS011;75140;47.754;8.840;2024-01-30T06:56:02;63.07;;;15.53;;
84877;SDS011;75140;47.754;8.840;2024-01-30T06:58:27;55.20;;;16.88;;
84877;SDS011;75140;47.754;8.840;2024-01-30T07:00:53;41.45;;;16.15;;
84877;SDS011;75140;47.754;8.840;2024-01-30T07:03:19;62.20;;;19.73;;
84877;SDS011;75140;47.754;8.840;2024-01-30T07:05:44;40.67;;;15.43;;
84877;SDS011;75140;47.754;8.840;2024-01-30T07:08:09;41.20;;;14.03;;
84877;SDS011;75140;47.754;8.840;2024-01-30T07:10:35;38.83;;;16.03;;
84877;SDS011;75140;47.754;8.840;2024-01-30T07:13:00;49.87;;;15.63;;
84877;SDS011;75140;47.754;8.840;2024-01-30T07:15:26;38.53;;;14.25;;
84877;SDS011;75140;47.754;8.840;2024-01-30T07:17:51;85.33;;;16.67;;
84877;SDS011;75140;47.754;8.840;2024-01-30T07:20:16;51.13;;;14.87;;
84877;SDS011;75140;47.754;8.840;2024-01-30T07:22:45;49.25;;;15.88;;
84877;SDS011;75140;47.754;8.840;2024-01-30T07:25:10;37.00;;;13.98;;
84877;SDS011;75140;47.754;8.840;2024-01-30T07:27:36;61.65;;;14.80;;
84877;SDS011;75140;47.754;8.840;2024-01-30T07:30:01;41.97;;;15.45;;
84877;SDS011;75140;47.754;8.840;2024-01-30T07:32:27;54.50;;;15.10;;
84877;SDS011;75140;47.754;8.840;2024-01-30T07:34:52;44.90;;;14.73;;
84877;SDS011;75140;47.754;8.840;2024-01-30T07:37:18;36.97;;;13.57;;
84877;SDS011;75140;47.754;8.840;2024-01-30T07:39:44;44.35;;;13.18;;
84877;SDS011;75140;47.754;8.840;2024-01-30T07:42:09;39.22;;;15.48;;
84877;SDS011;75140;47.754;8.840;2024-01-30T07:44:35;52.83;;;14.38;;
84877;SDS011;75140;47.754;8.840;2024-01-30T07:47:01;37.85;;;13.93;;
84877;SDS011;75140;47.754;8.840;2024-01-30T07:49:27;58.40;;;15.77;;
84877;SDS011;75140;47.754;8.840;2024-01-30T07:51:53;47.27;;;14.37;;
84877;SDS011;75140;47.754;8.840;2024-01-30T07:54:18;43.57;;;16.30;;
84877;SDS011;75140;47.754;8.840;2024-01-30T07:56:43;32.45;;;14.00;;
84877;SDS011;75140;47.754;8.840;2024-01-30T07:59:09;31.43;;;13.73;;
84877;SDS011;75140;47.754;8.840;2024-01-30T08:01:36;27.55;;;11.75;;
84877;SDS011;75140;47.754;8.840;2024-01-30T08:04:04;26.83;;;11.95;;
84877;SDS011;75140;47.754;8.840;2024-01-30T08:06:30;25.15;;;11.40;;
84877;SDS011;75140;47.754;8.840;2024-01-30T08:08:55;27.30;;;12.37;;
84877;SDS011;75140;47.754;8.840;2024-01-30T08:11:22;26.80;;;12.50;;
84877;SDS011;75140;47.754;8.840;2024-01-30T08:13:57;28.63;;;13.88;;
84877;SDS011;75140;47.754;8.840;2024-01-30T08:16:22;26.42;;;12.10;;
84877;SDS011;75140;47.754;8.840;2024-01-30T08:18:47;30.50;;;12.97;;
84877;SDS011;75140;47.754;8.840;2024-01-30T08:21:13;24.47;;;11.70;;
84877;SDS011;75140;47.754;8.840;2024-01-30T08:23:38;55.03;;;13.73;;
84877;SDS011;75140;47.754;8.840;2024-01-30T08:26:04;31.23;;;12.05;;
84877;SDS011;75140;47.754;8.840;2024-01-30T08:28:30;31.70;;;13.45;;
84877;SDS011;75140;47.754;8.840;2024-01-30T08:30:56;37.20;;;14.65;;
84877;SDS011;75140;47.754;8.840;2024-01-30T08:33:21;55.10;;;14.73;;
84877;SDS011;75140;47.754;8.840;2024-01-30T08:35:47;33.67;;;13.30;;
84877;SDS011;75140;47.754;8.840;2024-01-30T08:38:12;39.28;;;13.25;;
84877;SDS011;75140;47.754;8.840;2024-01-30T08:40:38;39.08;;;12.57;;
84877;SDS011;75140;47.754;8.840;2024-01-30T08:43:03;43.17;;;15.10;;
84877;SDS011;75140;47.754;8.840;2024-01-30T08:45:29;31.70;;;12.02;;
84877;SDS011;75140;47.754;8.840;2024-01-30T08:47:55;33.78;;;13.15;;
84877;SDS011;75140;47.754;8.840;2024-01-30T08:50:20;36.83;;;13.40;;
84877;SDS011;75140;47.754;8.840;2024-01-30T08:52:46;41.43;;;13.87;;
84877;SDS011;75140;47.754;8.840;2024-01-30T08:55:11;35.80;;;13.00;;
84877;SDS011;75140;47.754;8.840;2024-01-30T08:57:37;36.15;;;13.38;;
84877;SDS011;75140;47.754;8.840;2024-01-30T09:00:02;36.00;;;12.60;;
84877;SDS011;75140;47.754;8.840;2024-01-30T09:02:31;76.22;;;14.95;;
84877;SDS011;75140;47.754;8.840;2024-01-30T09:04:57;61.83;;;14.63;;
84877;SDS011;75140;47.754;8.840;2024-01-30T09:07:22;38.53;;;15.05;;
84877;SDS011;75140;47.754;8.840;2024-01-30T09:09:47;53.43;;;14.60;;
84877;SDS011;75140;47.754;8.840;2024-01-30T09:12:14;80.25;;;16.42;;
84877;SDS011;75140;47.754;8.840;2024-01-30T09:14:39;49.72;;;16.13;;
84877;SDS011;75140;47.754;8.840;2024-01-30T09:17:05;33.38;;;14.80;;
84877;SDS011;75140;47.754;8.840;2024-01-30T09:19:31;52.22;;;15.30;;
84877;SDS011;75140;47.754;8.840;2024-01-30T09:21:56;49.63;;;13.57;;
84877;SDS011;75140;47.754;8.840;2024-01-30T09:24:22;46.60;;;13.68;;
84877;SDS011;75140;47.754;8.840;2024-01-30T09:26:47;45.97;;;14.80;;
84877;SDS011;75140;47.754;8.840;2024-01-30T09:29:13;50.58;;;16.77;;
84877;SDS011;75140;47.754;8.840;2024-01-30T09:31:38;29.27;;;13.93;;
84877;SDS011;75140;47.754;8.840;2024-01-30T09:34:03;42.43;;;14.20;;
84877;SDS011;75140;47.754;8.840;2024-01-30T09:36:29;37.50;;;15.03;;
84877;SDS011;75140;47.754;8.840;2024-01-30T09:38:54;37.95;;;15.40;;
84877;SDS011;75140;47.754;8.840;2024-01-30T09:41:19;32.75;;;14.70;;
84877;SDS011;75140;47.754;8.840;2024-01-30T09:43:48;56.53;;;17.65;;
84877;SDS011;75140;47.754;8.840;2024-01-30T09:46:14;46.05;;;18.30;;
84877;SDS011;75140;47.754;8.840;2024-01-30T09:48:42;40.75;;;18.38;;
84877;SDS011;75140;47.754;8.840;2024-01-30T09:51:09;38.03;;;17.17;;
84877;SDS011;75140;47.754;8.840;2024-01-30T09:53:35;38.95;;;16.55;;
84877;SDS011;75140;47.754;8.840;2024-01-30T09:56:02;45.03;;;18.33;;
84877;SDS011;75140;47.754;8.840;2024-01-30T09:58:28;65.75;;;21.20;;
84877;SDS011;75140;47.754;8.840;2024-01-30T10:00:53;41.42;;;16.83;;
84877;SDS011;75140;47.754;8.840;2024-01-30T10:03:19;39.65;;;17.05;;
84877;SDS011;75140;47.754;8.840;2024-01-30T10:05:46;42.88;;;15.27;;
84877;SDS011;75140;47.754;8.840;2024-01-30T10:08:17;36.70;;;15.52;;
84877;SDS011;75140;47.754;8.840;2024-01-30T10:10:45;30.00;;;15.65;;
84877;SDS011;75140;47.754;8.840;2024-01-30T10:13:11;47.33;;;16.73;;
84877;SDS011;75140;47.754;8.840;2024-01-30T10:15:37;59.47;;;19.15;;
84877;SDS011;75140;47.754;8.840;2024-01-30T10:18:04;47.20;;;18.38;;
84877;SDS011;75140;47.754;8.840;2024-01-30T10:20:31;45.88;;;17.77;;
84877;SDS011;75140;47.754;8.840;2024-01-30T10:22:57;50.90;;;21.05;;
84877;SDS011;75140;47.754;8.840;2024-01-30T10:25:22;49.42;;;18.98;;
84877;SDS011;75140;47.754;8.840;2024-01-30T10:27:52;45.80;;;18.35;;
84877;SDS011;75140;47.754;8.840;2024-01-30T10:30:23;50.15;;;19.20;;
84877;SDS011;75140;47.754;8.840;2024-01-30T10:32:49;47.80;;;19.17;;
84877;SDS011;75140;47.754;8.840;2024-01-30T10:35:15;45.25;;;17.85;;
84877;SDS011;75140;47.754;8.840;2024-01-30T10:37:43;45.60;;;18.23;;
84877;SDS011;75140;47.754;8.840;2024-01-30T10:40:08;43.08;;;20.77;;
84877;SDS011;75140;47.754;8.840;2024-01-30T10:42:38;45.03;;;18.92;;
84877;SDS011;75140;47.754;8.840;2024-01-30T10:47:49;38.47;;;16.40;;
84877;SDS011;75140;47.754;8.840;2024-01-30T10:50:15;35.75;;;17.38;;
84877;SDS011;75140;47.754;8.840;2024-01-30T10:52:41;34.85;;;16.75;;
84877;SDS011;75140;47.754;8.840;2024-01-30T10:55:07;38.63;;;17.80;;
84877;SDS011;75140;47.754;8.840;2024-01-30T10:57:36;33.53;;;15.75;;
84877;SDS011;75140;47.754;8.840;2024-01-30T11:00:04;38.50;;;16.67;;
84877;SDS011;75140;47.754;8.840;2024-01-30T11:02:35;35.90;;;15.55;;
84877;SDS011;75140;47.754;8.840;2024-01-30T11:05:04;34.92;;;16.27;;
84877;SDS011;75140;47.754;8.840;2024-01-30T11:07:30;44.47;;;17.35;;
84877;SDS011;75140;47.754;8.840;2024-01-30T11:12:24;34.53;;;16.05;;
84877;SDS011;75140;47.754;8.840;2024-01-30T11:20:25;32.17;;;14.80;;
84877;SDS011;75140;47.754;8.840;2024-01-30T11:22:53;34.22;;;15.70;;
84877;SDS011;75140;47.754;8.840;2024-01-30T11:25:19;35.40;;;16.63;;
84877;SDS011;75140;47.754;8.840;2024-01-30T11:27:46;32.72;;;15.57;;
84877;SDS011;75140;47.754;8.840;2024-01-30T11:30:24;27.83;;;14.43;;
84877;SDS011;75140;47.754;8.840;2024-01-30T11:35:23;28.52;;;15.10;;
84877;SDS011;75140;47.754;8.840;2024-01-30T11:37:49;33.97;;;15.30;;
84877;SDS011;75140;47.754;8.840;2024-01-30T11:40:15;32.38;;;15.93;;
84877;SDS011;75140;47.754;8.840;2024-01-30T11:42:41;30.70;;;14.73;;
84877;SDS011;75140;47.754;8.840;2024-01-30T11:45:08;26.80;;;14.82;;
84877;SDS011;75140;47.754;8.840;2024-01-30T11:47:36;26.17;;;14.45;;
84877;SDS011;75140;47.754;8.840;2024-01-30T11:50:03;27.55;;;15.65;;
84877;SDS011;75140;47.754;8.840;2024-01-30T11:52:31;28.63;;;14.77;;
84877;SDS011;75140;47.754;8.840;2024-01-30T11:54:58;29.55;;;15.48;;
84877;SDS011;75140;47.754;8.840;2024-01-30T11:57:23;25.35;;;14.65;;
84877;SDS011;75140;47.754;8.840;2024-01-30T11:59:48;24.07;;;13.33;;
84877;SDS011;75140;47.754;8.840;2024-01-30T12:02:17;32.40;;;14.20;;
84877;SDS011;75140;47.754;8.840;2024-01-30T12:04:42;28.63;;;14.38;;
84877;SDS011;75140;47.754;8.840;2024-01-30T12:07:07;32.58;;;15.43;;
84877;SDS011;75140;47.754;8.840;2024-01-30T12:09:33;29.92;;;15.23;;
84877;SDS011;75140;47.754;8.840;2024-01-30T12:11:58;25.13;;;13.63;;
84877;SDS011;75140;47.754;8.840;2024-01-30T12:14:24;28.33;;;14.73;;
84877;SDS011;75140;47.754;8.840;2024-01-30T12:16:51;23.60;;;13.75;;
84877;SDS011;75140;47.754;8.840;2024-01-30T12:19:25;30.73;;;15.13;;
84877;SDS011;75140;47.754;8.840;2024-01-30T12:21:54;30.75;;;15.52;;
84877;SDS011;75140;47.754;8.840;2024-01-30T12:24:24;29.42;;;14.45;;
84877;SDS011;75140;47.754;8.840;2024-01-30T12:26:50;28.92;;;15.35;;
84877;SDS011;75140;47.754;8.840;2024-01-30T12:29:17;30.08;;;14.30;;
84877;SDS011;75140;47.754;8.840;2024-01-30T12:31:42;24.00;;;14.05;;
84877;SDS011;75140;47.754;8.840;2024-01-30T12:34:09;26.33;;;14.77;;
84877;SDS011;75140;47.754;8.840;2024-01-30T12:36:34;21.10;;;13.45;;
84877;SDS011;75140;47.754;8.840;2024-01-30T12:39:00;28.65;;;14.27;;
84877;SDS011;75140;47.754;8.840;2024-01-30T12:41:26;23.83;;;13.45;;
84877;SDS011;75140;47.754;8.840;2024-01-30T12:43:54;23.30;;;12.95;;
84877;SDS011;75140;47.754;8.840;2024-01-30T12:46:21;24.95;;;14.05;;
84877;SDS011;75140;47.754;8.840;2024-01-30T12:48:50;21.45;;;12.65;;
84877;SDS011;75140;47.754;8.840;2024-01-30T12:51:16;19.03;;;12.00;;
84877;SDS011;75140;47.754;8.840;2024-01-30T12:53:41;22.98;;;11.15;;
84877;SDS011;75140;47.754;8.840;2024-01-30T12:56:07;19.60;;;12.20;;
84877;SDS011;75140;47.754;8.840;2024-01-30T12:58:32;25.03;;;13.37;;
84877;SDS011;75140;47.754;8.840;2024-01-30T13:00:57;22.47;;;12.30;;
84877;SDS011;75140;47.754;8.840;2024-01-30T13:03:23;20.92;;;12.82;;
84877;SDS011;75140;47.754;8.840;2024-01-30T13:05:48;23.85;;;14.35;;
84877;SDS011;75140;47.754;8.840;2024-01-30T13:08:14;27.57;;;14.53;;
84877;SDS011;75140;47.754;8.840;2024-01-30T13:10:39;21.37;;;13.03;;
84877;SDS011;75140;47.754;8.840;2024-01-30T13:13:04;19.77;;;12.10;;
84877;SDS011;75140;47.754;8.840;2024-01-30T13:15:30;23.08;;;12.48;;
84877;SDS011;75140;47.754;8.840;2024-01-30T13:17:55;22.00;;;12.40;;
84877;SDS011;75140;47.754;8.840;2024-01-30T13:20:20;20.90;;;11.93;;
84877;SDS011;75140;47.754;8.840;2024-01-30T13:22:47;17.88;;;11.77;;
84877;SDS011;75140;47.754;8.840;2024-01-30T13:25:14;18.88;;;11.52;;
84877;SDS011;75140;47.754;8.840;2024-01-30T13:27:39;23.67;;;12.32;;
84877;SDS011;75140;47.754;8.840;2024-01-30T13:30:07;22.95;;;13.05;;
84877;SDS011;75140;47.754;8.840;2024-01-30T13:32:34;24.83;;;14.05;;
84877;SDS011;75140;47.754;8.840;2024-01-30T13:34:59;21.30;;;12.77;;
84877;SDS011;75140;47.754;8.840;2024-01-30T13:37:25;22.02;;;13.77;;
84877;SDS011;75140;47.754;8.840;2024-01-30T13:39:50;22.05;;;12.55;;
84877;SDS011;75140;47.754;8.840;2024-01-30T13:42:16;20.27;;;12.27;;
84877;SDS011;75140;47.754;8.840;2024-01-30T13:44:41;24.60;;;12.50;;
84877;SDS011;75140;47.754;8.840;2024-01-30T13:47:08;19.95;;;12.73;;
84877;SDS011;75140;47.754;8.840;2024-01-30T13:49:34;22.48;;;13.45;;
84877;SDS011;75140;47.754;8.840;2024-01-30T13:51:59;23.03;;;14.40;;
84877;SDS011;75140;47.754;8.840;2024-01-30T13:54:25;21.55;;;13.82;;
84877;SDS011;75140;47.754;8.840;2024-01-30T13:56:50;23.60;;;14.00;;
84877;SDS011;75140;47.754;8.840;2024-01-30T13:59:16;20.92;;;13.38;;
84877;SDS011;75140;47.754;8.840;2024-01-30T14:01:47;21.75;;;12.27;;
84877;SDS011;75140;47.754;8.840;2024-01-30T14:04:13;22.70;;;13.43;;
84877;SDS011;75140;47.754;8.840;2024-01-30T14:06:39;20.73;;;13.23;;
84877;SDS011;75140;47.754;8.840;2024-01-30T14:09:05;19.58;;;13.27;;
84877;SDS011;75140;47.754;8.840;2024-01-30T14:11:30;20.83;;;14.02;;
84877;SDS011;75140;47.754;8.840;2024-01-30T14:13:56;21.00;;;12.45;;
84877;SDS011;75140;47.754;8.840;2024-01-30T14:16:21;21.23;;;13.32;;
84877;SDS011;75140;47.754;8.840;2024-01-30T14:18:47;19.73;;;11.88;;
84877;SDS011;75140;47.754;8.840;2024-01-30T14:21:13;17.40;;;12.82;;
84877;SDS011;75140;47.754;8.840;2024-01-30T14:23:38;20.27;;;13.25;;
84877;SDS011;75140;47.754;8.840;2024-01-30T14:26:04;21.95;;;13.30;;